Buoy 46770

sailwx.info

Track history (hours):
 
Tides and Currents Weather Stations Pressure Air Temp Water Temp Dewpoint Dewpoint Depression Visibility Wind Speed Wind Dir Waves Ship Positions

Drifting buoy 46770

Last reported at 2014-Oct-24 14:30 UTC. Time now 2014-Oct-24 16:53 UTC.
Position N 52°58' E 169°58'.

Barometer 1013.3 mb
Water temperature 8.6 ° C

Date/timePositionNaut miles runAvg speedWind from/ knotsBaromVisibWave heightAir tempDewpointWater temp
2014-Oct-24 14:30N 52°58' E 169°58'2 0.4 1013.3 8.6
2014-Oct-24 09:30N 52°58' E 170°02'0 0.0 1014.2 8.6
2014-Oct-24 08:30N 52°58' E 170°02'1 0.2 1014.3 8.5
2014-Oct-24 04:30N 52°58' E 170°00'1 0.5 1014.8 8.5
2014-Oct-24 02:30N 52°57' E 169°60'0 0.0 1015.2 8.6
2014-Oct-24 01:30N 52°57' E 169°60'1 0.4 1015.5 8.6
2014-Oct-23 22:30N 52°56' E 170°01'1 0.6 1016.3 8.6
2014-Oct-23 20:30N 52°55' E 170°02'0 0.1 1016.3 8.5
2014-Oct-23 15:30N 52°55' E 170°03'1 1.3 1015.7 8.6
2014-Oct-23 14:30N 52°55' E 170°05'1 0.6 1015.7 8.6
2014-Oct-23 13:30N 52°55' E 170°04'1 0.2 1015.6 8.6
2014-Oct-23 10:30N 52°55' E 170°04'4 2.0 1015.0 8.6
2014-Oct-23 08:30N 52°51' E 170°07'0 0.0 1014.1 8.7
2014-Oct-23 05:30N 52°51' E 170°07'1 0.3 1012.6 8.7
2014-Oct-23 01:30N 52°51' E 170°09'1 0.3 1010.8 8.7
2014-Oct-22 23:30N 52°52' E 170°09'0 0.0 1009.7 8.8
2014-Oct-22 22:30N 52°52' E 170°09'6 0.9 1009.1 8.8
2014-Oct-22 15:30N 52°46' E 170°07'0 0.0 1009.3 8.9
2014-Oct-22 13:30N 52°46' E 170°07'0 0.0 1011.2 8.9
2014-Oct-22 09:30N 52°46' E 170°07'0 0.0 1014.9 9.0
2014-Oct-22 08:30N 52°46' E 170°07'2 0.4 1015.1 9.0
2014-Oct-22 03:30N 52°44' E 170°06'1 0.4 1017.5 9.0
2014-Oct-22 00:30N 52°43' E 170°07'2 0.5 1018.6 9.0
2014-Oct-21 20:30N 52°41' E 170°09'1 0.2 1019.0 9.0
2014-Oct-21 17:30N 52°42' E 170°10'2 0.9 1019.7 9.0
2014-Oct-21 15:30N 52°42' E 170°07'3 0.6 1020.9 9.0
2014-Oct-21 09:30N 52°39' E 170°07'1 0.7 1023.3 9.0
2014-Oct-21 08:30N 52°38' E 170°08'1 0.3 1023.5 9.0
2014-Oct-21 05:30N 52°37' E 170°10'1 0.3 1023.0 9.2
2014-Oct-21 01:30N 52°38' E 170°11'0 0.0 1022.8 9.2
2014-Oct-20 23:30N 52°38' E 170°10'1 0.4 1022.7 9.0
2014-Oct-20 21:30N 52°38' E 170°10'4 0.9 1022.1 9.0
2014-Oct-20 17:30N 52°34' E 170°12'0 0.3 1018.9 9.0
2014-Oct-20 16:30N 52°34' E 170°12'1 1.5 1017.8 9.0
2014-Oct-20 15:30N 52°35' E 170°15'0 0.4 1016.7 9.0
2014-Oct-20 14:10N 52°35' E 170°15'0 0.0 850.0 -5.0
2014-Oct-20 13:30N 52°35' E 170°15'1 0.2 1014.6 9.0
2014-Oct-20 09:30N 52°35' E 170°14'2 0.5 1008.5 9.1
2014-Oct-20 05:30N 52°33' E 170°14'0 0.5 1002.1 9.1
2014-Oct-20 04:30N 52°33' E 170°15'1 0.7 1000.6 9.1
2014-Oct-20 02:30N 52°33' E 170°17'1 0.9 997.7 9.1
2014-Oct-20 01:30N 52°33' E 170°18'1 0.6 996.7 9.1
2014-Oct-19 23:30N 52°34' E 170°17'0 0.0 995.2 9.1
2014-Oct-19 19:30N 52°34' E 170°17'0 0.0 994.8 9.1
2014-Oct-19 18:30N 52°34' E 170°17'1 0.3 994.5 9.1
2014-Oct-19 16:30N 52°33' E 170°16'2 0.2 993.7 9.1
2014-Oct-19 08:30N 52°32' E 170°18'1 0.1 994.8 9.1
2014-Oct-19 02:30N 52°32' E 170°16'1 0.7 994.5 9.2
2014-Oct-19 01:30N 52°32' E 170°15'2 0.8 995.6 9.1
2014-Oct-18 23:30N 52°31' E 170°14'1 1.3 997.6 9.1
2014-Oct-18 22:30N 52°30' E 170°13'0 0.1 998.3 9.1
2014-Oct-18 18:30N 52°30' E 170°13'0 0.2 1000.5 9.1
2014-Oct-18 17:30N 52°29' E 170°13'1 0.4 1000.8 9.2
2014-Oct-18 15:30N 52°30' E 170°14'0 0.0 1001.7 9.2
2014-Oct-18 13:30N 52°30' E 170°14'1 1.5 1002.6 9.2
2014-Oct-18 12:30N 52°30' E 170°12'2 0.4 1003.0 9.2
2014-Oct-18 07:30N 52°28' E 170°10'3 1.3 1010.1 9.2
2014-Oct-18 05:30N 52°26' E 170°09'2 0.6 1012.8 9.2
2014-Oct-18 02:30N 52°25' E 170°11'0 0.0 1017.2 9.2
2014-Oct-18 00:30N 52°25' E 170°11'2 1.0 1020.5 9.2
2014-Oct-17 22:30N 52°26' E 170°08'0 0.0 1023.1 9.2
2014-Oct-17 19:30N 52°26' E 170°08'0 0.0 1025.7 9.2
2014-Oct-17 18:30N 52°26' E 170°08'1 0.6 1026.5 9.2
2014-Oct-17 16:30N 52°25' E 170°07'0 0.0 1027.4 9.2
2014-Oct-17 15:30N 52°25' E 170°07'2 2.0 1027.4 9.2
2014-Oct-17 14:30N 52°23' E 170°08'0 0.0 1028.2 9.2
2014-Oct-17 12:30N 52°23' E 170°08'1 0.1 1028.9 9.2
2014-Oct-17 07:30N 52°24' E 170°09'1 0.5 1029.2 9.3
2014-Oct-17 04:30N 52°25' E 170°08'2 0.9 1027.7 9.3
2014-Oct-17 02:30N 52°25' E 170°05'2 0.8 1027.1 9.3
2014-Oct-17 00:30N 52°24' E 170°03'2 0.5 1026.1 9.3
2014-Oct-16 19:30N 52°23' E 170°07'1 1.3 1021.7 9.3
2014-Oct-16 18:30N 52°24' E 170°07'0 0.0 1020.7 9.3
2014-Oct-16 17:30N 52°24' E 170°07'2 0.1 1019.7 9.3
2014-Oct-16 04:30N 52°25' E 170°08'1 0.1 998.9 9.5
2014-Oct-15 23:30N 52°26' E 170°09'2 0.5 983.9 9.5
2014-Oct-15 18:30N 52°26' E 170°05'1 0.4 982.8 9.5
2014-Oct-15 16:30N 52°25' E 170°05'2 0.8 985.0 9.5
2014-Oct-15 14:30N 52°23' E 170°04'1 0.2 991.2 9.6
2014-Oct-15 09:30N 52°22' E 170°03'0 0.5 1005.5 9.6
2014-Oct-15 08:30N 52°22' E 170°03'1 0.3 1007.1 9.6
2014-Oct-15 06:30N 52°21' E 170°02'0 0.1 1009.6 9.6
2014-Oct-15 02:30N 52°21' E 170°03'0 0.0 1011.1 9.6
2014-Oct-15 01:30N 52°21' E 170°03'1 0.3 1011.8 9.6
2014-Oct-14 22:30N 52°22' E 170°01'1 0.5 1012.0 9.6
2014-Oct-14 20:30N 52°22' E 169°60'1 0.2 1011.1 9.6
2014-Oct-14 15:30N 52°21' E 169°58'   1009.0 9.6
Track history (hours):
 
Tides and Currents Weather Stations Pressure Air Temp Water Temp Dewpoint Dewpoint Depression Visibility Wind Speed Wind Dir Waves Ship Positions

Drifting buoy 46770

Last reported at 2014-Oct-24 14:30 UTC. Time now 2014-Oct-24 16:53 UTC.
Position N 52°58' E 169°58'.

Barometer 1013.3 mb
Water temperature 8.6 ° C

Date/timePositionNaut miles runAvg speedWind from/ knotsBaromVisibWave heightAir tempDewpointWater temp
2014-Oct-24 14:30N 52°58' E 169°58'2 0.4 1013.3 8.6
2014-Oct-24 09:30N 52°58' E 170°02'0 0.0 1014.2 8.6
2014-Oct-24 08:30N 52°58' E 170°02'1 0.2 1014.3 8.5
2014-Oct-24 04:30N 52°58' E 170°00'1 0.5 1014.8 8.5
2014-Oct-24 02:30N 52°57' E 169°60'0 0.0 1015.2 8.6
2014-Oct-24 01:30N 52°57' E 169°60'1 0.4 1015.5 8.6
2014-Oct-23 22:30N 52°56' E 170°01'1 0.6 1016.3 8.6
2014-Oct-23 20:30N 52°55' E 170°02'0 0.1 1016.3 8.5
2014-Oct-23 15:30N 52°55' E 170°03'1 1.3 1015.7 8.6
2014-Oct-23 14:30N 52°55' E 170°05'1 0.6 1015.7 8.6
2014-Oct-23 13:30N 52°55' E 170°04'1 0.2 1015.6 8.6
2014-Oct-23 10:30N 52°55' E 170°04'4 2.0 1015.0 8.6
2014-Oct-23 08:30N 52°51' E 170°07'0 0.0 1014.1 8.7
2014-Oct-23 05:30N 52°51' E 170°07'1 0.3 1012.6 8.7
2014-Oct-23 01:30N 52°51' E 170°09'1 0.3 1010.8 8.7
2014-Oct-22 23:30N 52°52' E 170°09'0 0.0 1009.7 8.8
2014-Oct-22 22:30N 52°52' E 170°09'6 0.9 1009.1 8.8
2014-Oct-22 15:30N 52°46' E 170°07'0 0.0 1009.3 8.9
2014-Oct-22 13:30N 52°46' E 170°07'0 0.0 1011.2 8.9
2014-Oct-22 09:30N 52°46' E 170°07'0 0.0 1014.9 9.0
2014-Oct-22 08:30N 52°46' E 170°07'2 0.4 1015.1 9.0
2014-Oct-22 03:30N 52°44' E 170°06'1 0.4 1017.5 9.0
2014-Oct-22 00:30N 52°43' E 170°07'2 0.5 1018.6 9.0
2014-Oct-21 20:30N 52°41' E 170°09'1 0.2 1019.0 9.0
2014-Oct-21 17:30N 52°42' E 170°10'2 0.9 1019.7 9.0
2014-Oct-21 15:30N 52°42' E 170°07'3 0.6 1020.9 9.0
2014-Oct-21 09:30N 52°39' E 170°07'1 0.7 1023.3 9.0
2014-Oct-21 08:30N 52°38' E 170°08'1 0.3 1023.5 9.0
2014-Oct-21 05:30N 52°37' E 170°10'1 0.3 1023.0 9.2
2014-Oct-21 01:30N 52°38' E 170°11'0 0.0 1022.8 9.2
2014-Oct-20 23:30N 52°38' E 170°10'1 0.4 1022.7 9.0
2014-Oct-20 21:30N 52°38' E 170°10'4 0.9 1022.1 9.0
2014-Oct-20 17:30N 52°34' E 170°12'0 0.3 1018.9 9.0
2014-Oct-20 16:30N 52°34' E 170°12'1 1.5 1017.8 9.0
2014-Oct-20 15:30N 52°35' E 170°15'0 0.4 1016.7 9.0
2014-Oct-20 14:10N 52°35' E 170°15'0 0.0 850.0 -5.0
2014-Oct-20 13:30N 52°35' E 170°15'1 0.2 1014.6 9.0
2014-Oct-20 09:30N 52°35' E 170°14'2 0.5 1008.5 9.1
2014-Oct-20 05:30N 52°33' E 170°14'0 0.5 1002.1 9.1
2014-Oct-20 04:30N 52°33' E 170°15'1 0.7 1000.6 9.1
2014-Oct-20 02:30N 52°33' E 170°17'1 0.9 997.7 9.1
2014-Oct-20 01:30N 52°33' E 170°18'1 0.6 996.7 9.1
2014-Oct-19 23:30N 52°34' E 170°17'0 0.0 995.2 9.1
2014-Oct-19 19:30N 52°34' E 170°17'0 0.0 994.8 9.1
2014-Oct-19 18:30N 52°34' E 170°17'1 0.3 994.5 9.1
2014-Oct-19 16:30N 52°33' E 170°16'2 0.2 993.7 9.1
2014-Oct-19 08:30N 52°32' E 170°18'1 0.1 994.8 9.1
2014-Oct-19 02:30N 52°32' E 170°16'1 0.7 994.5 9.2
2014-Oct-19 01:30N 52°32' E 170°15'2 0.8 995.6 9.1
2014-Oct-18 23:30N 52°31' E 170°14'1 1.3 997.6 9.1
2014-Oct-18 22:30N 52°30' E 170°13'0 0.1 998.3 9.1
2014-Oct-18 18:30N 52°30' E 170°13'0 0.2 1000.5 9.1
2014-Oct-18 17:30N 52°29' E 170°13'1 0.4 1000.8 9.2
2014-Oct-18 15:30N 52°30' E 170°14'0 0.0 1001.7 9.2
2014-Oct-18 13:30N 52°30' E 170°14'1 1.5 1002.6 9.2
2014-Oct-18 12:30N 52°30' E 170°12'2 0.4 1003.0 9.2
2014-Oct-18 07:30N 52°28' E 170°10'3 1.3 1010.1 9.2
2014-Oct-18 05:30N 52°26' E 170°09'2 0.6 1012.8 9.2
2014-Oct-18 02:30N 52°25' E 170°11'0 0.0 1017.2 9.2
2014-Oct-18 00:30N 52°25' E 170°11'2 1.0 1020.5 9.2
2014-Oct-17 22:30N 52°26' E 170°08'0 0.0 1023.1 9.2
2014-Oct-17 19:30N 52°26' E 170°08'0 0.0 1025.7 9.2
2014-Oct-17 18:30N 52°26' E 170°08'1 0.6 1026.5 9.2
2014-Oct-17 16:30N 52°25' E 170°07'0 0.0 1027.4 9.2
2014-Oct-17 15:30N 52°25' E 170°07'2 2.0 1027.4 9.2
2014-Oct-17 14:30N 52°23' E 170°08'0 0.0 1028.2 9.2
2014-Oct-17 12:30N 52°23' E 170°08'1 0.1 1028.9 9.2
2014-Oct-17 07:30N 52°24' E 170°09'1 0.5 1029.2 9.3
2014-Oct-17 04:30N 52°25' E 170°08'2 0.9 1027.7 9.3
2014-Oct-17 02:30N 52°25' E 170°05'2 0.8 1027.1 9.3
2014-Oct-17 00:30N 52°24' E 170°03'2 0.5 1026.1 9.3
2014-Oct-16 19:30N 52°23' E 170°07'1 1.3 1021.7 9.3
2014-Oct-16 18:30N 52°24' E 170°07'0 0.0 1020.7 9.3
2014-Oct-16 17:30N 52°24' E 170°07'2 0.1 1019.7 9.3
2014-Oct-16 04:30N 52°25' E 170°08'1 0.1 998.9 9.5
2014-Oct-15 23:30N 52°26' E 170°09'2 0.5 983.9 9.5
2014-Oct-15 18:30N 52°26' E 170°05'1 0.4 982.8 9.5
2014-Oct-15 16:30N 52°25' E 170°05'2 0.8 985.0 9.5
2014-Oct-15 14:30N 52°23' E 170°04'1 0.2 991.2 9.6
2014-Oct-15 09:30N 52°22' E 170°03'0 0.5 1005.5 9.6
2014-Oct-15 08:30N 52°22' E 170°03'1 0.3 1007.1 9.6
2014-Oct-15 06:30N 52°21' E 170°02'0 0.1 1009.6 9.6
2014-Oct-15 02:30N 52°21' E 170°03'0 0.0 1011.1 9.6
2014-Oct-15 01:30N 52°21' E 170°03'1 0.3 1011.8 9.6
2014-Oct-14 22:30N 52°22' E 170°01'1 0.5 1012.0 9.6
2014-Oct-14 20:30N 52°22' E 169°60'1 0.2 1011.1 9.6
2014-Oct-14 15:30N 52°21' E 169°58'   1009.0 9.6

Dump ship's entire track history